Time;durP1;ratioP1;P1;durP2;ratioP2;P2;SDS_P1;SDS_P2;PMS_P1;PMS_P2;Temp;Humidity;BMP_temperature;BMP_pressure;BME280_temperature;BME280_humidity;BME280_pressure;Samples;Min_cycle;Max_cycle;Signal;HPM_P1;HPM_P2
2021/05/27 00:01:18;;;;;;;0.95;0.40;;;;;;;9.30;70.72;99729.00;10550431;28;20109;-74
2021/05/27 00:06:19;;;;;;;0.50;0.40;;;;;;;9.30;71.02;99736.03;10551675;28;20040;-73
2021/05/27 00:11:21;;;;;;;0.50;0.40;;;;;;;9.24;71.37;99731.81;10549921;28;20048;-72
2021/05/27 00:16:23;;;;;;;0.40;0.30;;;;;;;9.17;71.45;99737.31;10551189;28;20473;-72
2021/05/27 00:21:25;;;;;;;0.70;0.57;;;;;;;9.25;71.23;99733.56;10531690;28;20036;-73
2021/05/27 00:26:26;;;;;;;0.60;0.43;;;;;;;9.22;71.47;99736.25;10549603;28;20059;-73
2021/05/27 00:31:30;;;;;;;0.73;0.65;;;;;;;9.08;71.44;99747.16;10549866;28;20042;-73
2021/05/27 00:36:31;;;;;;;0.40;0.40;;;;;;;9.20;70.99;99748.53;10548667;28;20067;-72
2021/05/27 00:41:33;;;;;;;0.65;0.65;;;;;;;9.23;71.02;99748.47;10515667;28;20559;-73
2021/05/27 00:46:35;;;;;;;0.60;0.60;;;;;;;9.19;71.03;99757.31;10549711;28;20068;-73
2021/05/27 00:51:37;;;;;;;0.70;0.70;;;;;;;9.24;70.86;99752.78;10549026;28;20102;-72
2021/05/27 00:56:40;;;;;;;0.70;0.60;;;;;;;9.20;70.92;99747.69;10531385;28;20051;-72
2021/05/27 01:01:43;;;;;;;0.70;0.70;;;;;;;9.17;70.89;99748.66;10549476;28;20097;-73
2021/05/27 01:06:45;;;;;;;1.00;0.80;;;;;;;9.03;71.37;99758.69;10530494;28;20113;-72
2021/05/27 01:11:47;;;;;;;0.80;0.73;;;;;;;8.90;71.83;99765.19;10548351;28;20131;-73
2021/05/27 01:16:51;;;;;;;1.63;0.80;;;;;;;8.94;71.99;99762.47;10530557;28;20101;-72
2021/05/27 01:21:52;;;;;;;0.85;0.80;;;;;;;8.83;72.03;99769.75;10557029;22;20082;-68
2021/05/27 01:26:56;;;;;;;1.00;1.00;;;;;;;8.73;72.17;99774.41;10526957;28;20416;-68
2021/05/27 01:31:58;;;;;;;1.33;0.88;;;;;;;8.88;71.56;99777.50;10526251;28;20048;-67
2021/05/27 01:37:00;;;;;;;1.70;1.00;;;;;;;8.88;71.09;99778.34;10544349;28;20124;-68
2021/05/27 01:42:06;;;;;;;1.00;0.90;;;;;;;8.94;71.28;99778.19;10526121;28;20054;-68
2021/05/27 01:47:09;;;;;;;1.00;0.90;;;;;;;8.89;71.21;99787.91;10545257;28;20051;-67
2021/05/27 01:52:11;;;;;;;1.50;1.10;;;;;;;8.88;70.75;99783.59;10525430;28;20064;-68
2021/05/27 01:57:13;;;;;;;2.40;1.20;;;;;;;8.90;70.49;99784.44;10544026;28;20119;-67
2021/05/27 02:02:15;;;;;;;1.33;1.23;;;;;;;8.83;70.32;99790.72;10524662;28;20063;-68
2021/05/27 02:07:18;;;;;;;1.65;1.20;;;;;;;8.83;70.34;99785.50;10525015;28;20068;-67
2021/05/27 02:12:25;;;;;;;1.30;1.20;;;;;;;8.70;70.37;99789.34;10508246;28;20536;-68
2021/05/27 02:17:27;;;;;;;2.42;1.40;;;;;;;8.81;69.56;99793.41;10525037;28;20040;-67
2021/05/27 02:22:29;;;;;;;1.60;1.50;;;;;;;8.84;69.28;99790.69;10542163;28;20462;-67
2021/05/27 02:27:39;;;;;;;1.52;1.40;;;;;;;8.72;69.78;99790.16;10524258;28;20048;-67
2021/05/27 02:32:44;;;;;;;2.03;1.85;;;;;;;8.68;69.48;99796.41;10524976;28;20138;-67
2021/05/27 02:37:46;;;;;;;2.75;1.80;;;;;;;8.65;69.21;99789.50;10541894;28;20115;-67
2021/05/27 02:42:48;;;;;;;2.40;2.05;;;;;;;8.50;69.51;99798.63;10541526;28;20079;-67
2021/05/27 02:47:51;;;;;;;1.80;1.67;;;;;;;8.59;68.87;99790.53;10523032;28;20199;-68
2021/05/27 02:52:55;;;;;;;2.35;2.20;;;;;;;8.52;68.51;99795.97;10522798;28;20044;-66
2021/05/27 02:57:57;;;;;;;2.67;2.38;;;;;;;8.61;67.54;99797.47;10540704;28;20401;-67
2021/05/27 03:02:59;;;;;;;2.38;2.17;;;;;;;8.60;67.86;99794.00;10522607;28;20052;-67
2021/05/27 03:08:02;;;;;;;2.35;2.15;;;;;;;8.65;67.54;99793.88;10523840;28;20051;-68
2021/05/27 03:13:07;;;;;;;2.40;2.20;;;;;;;8.55;67.08;99799.38;10522148;28;20044;-67
2021/05/27 03:18:11;;;;;;;2.65;2.45;;;;;;;8.56;67.50;99806.31;10522813;28;20071;-68
2021/05/27 03:23:14;;;;;;;2.85;2.65;;;;;;;8.51;67.65;99805.59;10538937;28;20471;-68
2021/05/27 03:28:15;;;;;;;2.78;2.58;;;;;;;8.56;67.29;99800.22;10540146;28;20036;-67
2021/05/27 03:33:18;;;;;;;2.90;2.70;;;;;;;8.49;67.15;99799.50;10539856;28;20382;-67
2021/05/27 03:38:20;;;;;;;2.92;2.63;;;;;;;8.42;67.45;99811.06;10540176;28;20032;-67
2021/05/27 03:43:26;;;;;;;2.63;2.47;;;;;;;8.59;66.99;99816.72;10539633;28;20040;-67
2021/05/27 03:48:28;;;;;;;2.83;2.63;;;;;;;8.64;66.64;99811.34;10540045;28;20422;-67
2021/05/27 03:53:30;;;;;;;2.13;2.03;;;;;;;8.65;66.59;99809.59;10540793;28;20070;-67
2021/05/27 04:09:16;;;;;;;2.28;2.00;;;;;;;8.78;66.07;99822.31;10539447;28;20066;-68
2021/05/27 04:14:17;;;;;;;2.30;2.10;;;;;;;8.83;65.99;99827.44;10538670;28;20044;-68
2021/05/27 04:19:19;;;;;;;2.63;2.15;;;;;;;8.86;65.49;99834.34;10538539;28;20044;-68
2021/05/27 04:24:20;;;;;;;2.42;1.77;;;;;;;9.00;64.96;99829.56;10538569;28;20557;-68
2021/05/27 04:29:22;;;;;;;3.53;2.20;;;;;;;9.02;64.90;99826.00;10540108;28;20384;-68
2021/05/27 04:34:24;;;;;;;2.30;2.10;;;;;;;9.31;64.29;99824.28;10540623;28;20050;-71
2021/05/27 04:39:25;;;;;;;2.47;2.28;;;;;;;9.60;63.88;99823.38;10528300;28;20416;-71
2021/05/27 04:44:27;;;;;;;2.25;1.77;;;;;;;9.73;63.26;99823.88;10547903;28;20127;-71
2021/05/27 04:49:28;;;;;;;2.25;2.05;;;;;;;9.82;63.57;99832.31;10546057;28;20047;-72
2021/05/27 04:54:30;;;;;;;2.28;2.08;;;;;;;9.95;63.46;99831.91;10547662;28;20044;-67
2021/05/27 04:59:32;;;;;;;1.65;1.50;;;;;;;10.10;62.16;99844.56;10544838;28;20059;-68
2021/05/27 05:04:33;;;;;;;2.67;2.08;;;;;;;10.06;62.78;99848.19;10544937;28;20464;-68
2021/05/27 05:09:35;;;;;;;2.75;2.30;;;;;;;10.08;62.95;99851.63;10544530;28;20044;-69
2021/05/27 05:14:36;;;;;;;2.40;1.90;;;;;;;10.28;61.94;99845.75;10545569;28;20402;-69
2021/05/27 05:19:38;;;;;;;2.67;1.73;;;;;;;10.34;62.22;99848.16;10526956;28;20051;-69
2021/05/27 05:24:43;;;;;;;2.08;1.90;;;;;;;10.41;62.19;99854.09;10544858;28;20063;-68
2021/05/27 05:29:45;;;;;;;2.15;2.00;;;;;;;10.40;62.44;99862.84;10544006;28;20040;-69
2021/05/27 05:34:46;;;;;;;1.90;1.80;;;;;;;10.55;61.27;99868.47;10544738;28;20455;-71
2021/05/27 05:39:48;;;;;;;3.42;1.80;;;;;;;10.66;61.40;99870.69;10543352;28;20401;-69
2021/05/27 05:44:51;;;;;;;2.42;2.20;;;;;;;10.77;61.19;99868.56;10543425;28;20048;-69
2021/05/27 05:49:52;;;;;;;2.95;2.22;;;;;;;10.80;61.21;99872.84;10542516;28;20036;-69
2021/05/27 05:54:54;;;;;;;2.30;2.10;;;;;;;10.99;61.82;99871.31;10524168;28;20040;-69
2021/05/27 05:59:55;;;;;;;2.83;2.30;;;;;;;11.07;59.79;99865.78;10542690;28;20056;-69
2021/05/27 06:04:57;;;;;;;3.85;2.10;;;;;;;11.06;60.38;99871.91;10542092;28;20044;-68
2021/05/27 06:10:37;;;;;;;3.75;2.10;;;;;;;11.14;60.26;99874.28;10371918;28;20042;-69
2021/05/27 06:15:40;;;;;;;2.40;2.20;;;;;;;11.33;59.31;99884.09;10372325;28;20054;-69
2021/05/27 06:20:42;;;;;;;4.65;2.05;;;;;;;11.22;59.49;99882.75;10371763;28;20050;-69
2021/05/27 06:25:48;;;;;;;2.55;1.73;;;;;;;11.28;59.87;99875.47;10355653;28;20558;-68
2021/05/27 06:30:50;;;;;;;2.60;2.25;;;;;;;11.44;59.91;99865.25;10372210;28;20042;-69
2021/05/27 06:35:52;;;;;;;2.75;2.45;;;;;;;11.49;59.34;99867.69;10372555;28;20520;-69
2021/05/27 06:40:54;;;;;;;3.42;2.30;;;;;;;11.55;59.70;99881.50;10483708;28;20482;-68
2021/05/27 06:45:56;;;;;;;3.08;2.13;;;;;;;11.70;58.82;99871.28;10540968;28;20063;-69
2021/05/27 06:50:58;;;;;;;2.25;2.05;;;;;;;11.63;58.67;99891.72;10540795;28;20040;-68
2021/05/27 06:56:00;;;;;;;1.75;1.65;;;;;;;12.12;58.33;99876.66;10540834;28;20051;-68
2021/05/27 07:01:02;;;;;;;2.45;1.80;;;;;;;12.40;56.89;99881.66;10539377;28;20040;-69
2021/05/27 07:06:05;;;;;;;2.42;1.77;;;;;;;12.80;58.04;99874.69;10540020;28;20043;-68
2021/05/27 07:11:07;;;;;;;2.35;1.88;;;;;;;13.10;55.43;99867.19;10539495;28;20044;-68
2021/05/27 07:16:09;;;;;;;2.17;1.80;;;;;;;13.26;55.80;99883.22;10523225;28;20404;-68
2021/05/27 07:21:10;;;;;;;2.08;1.70;;;;;;;13.58;54.87;99877.31;10554362;22;20043;-72
2021/05/27 07:26:12;;;;;;;1.70;1.50;;;;;;;13.87;53.36;99880.38;10545268;28;20052;-72
2021/05/27 07:31:14;;;;;;;2.65;1.40;;;;;;;13.81;52.69;99876.25;10545287;28;20040;-71
2021/05/27 07:36:15;;;;;;;1.67;1.17;;;;;;;13.72;53.74;99873.19;10526462;28;20058;-71
2021/05/27 07:41:21;;;;;;;1.50;1.40;;;;;;;14.06;52.06;99875.91;10544648;28;20044;-72
2021/05/27 07:46:23;;;;;;;2.00;1.10;;;;;;;13.84;51.94;99857.59;10544778;28;20036;-70
2021/05/27 07:51:25;;;;;;;1.42;1.02;;;;;;;14.28;52.69;99857.22;10545050;28;20051;-72
2021/05/27 07:56:27;;;;;;;1.30;1.20;;;;;;;14.36;54.07;99860.34;10525426;28;20508;-71
2021/05/27 08:01:29;;;;;;;1.23;1.10;;;;;;;14.63;51.46;99866.06;10544610;28;20048;-72
2021/05/27 08:06:31;;;;;;;1.50;1.02;;;;;;;14.68;52.27;99849.94;10526390;28;20413;-72
2021/05/27 08:11:34;;;;;;;3.60;1.00;;;;;;;14.65;50.47;99860.66;10530024;28;20398;-71
2021/05/27 08:16:37;;;;;;;1.70;1.00;;;;;;;14.83;50.61;99859.75;10552483;28;20062;-71
2021/05/27 08:21:39;;;;;;;1.75;0.90;;;;;;;14.89;50.28;99863.84;10551255;28;20055;-72
2021/05/27 08:26:41;;;;;;;1.52;1.10;;;;;;;15.55;51.20;99861.19;10533632;28;20044;-71
2021/05/27 08:31:42;;;;;;;1.50;0.77;;;;;;;16.14;47.71;99859.63;10533392;28;20146;-72
2021/05/27 08:36:44;;;;;;;1.50;0.90;;;;;;;15.91;47.79;99872.50;10549403;28;20492;-72
2021/05/27 08:41:46;;;;;;;0.65;0.60;;;;;;;16.20;47.80;99861.06;10547274;28;20042;-73
2021/05/27 08:46:49;;;;;;;2.30;1.02;;;;;;;16.59;45.92;99868.50;10547076;28;20047;-72
2021/05/27 08:51:51;;;;;;;1.48;0.90;;;;;;;16.35;45.89;99864.66;10528877;28;20485;-74
2021/05/27 08:56:53;;;;;;;1.45;0.98;;;;;;;16.52;46.25;99864.53;10551222;28;20050;-72
2021/05/27 09:02:08;;;;;;;1.13;0.90;;;;;;;15.97;48.38;99862.41;10532203;28;20079;-72
2021/05/27 09:07:11;;;;;;;1.10;0.73;;;;;;;16.97;46.05;99853.94;10552080;28;20543;-73
2021/05/27 09:12:34;;;;;;;1.63;0.90;;;;;;;17.90;43.10;99856.88;10549211;28;20054;-72
2021/05/27 09:17:47;;;;;;;1.45;0.90;;;;;;;17.05;44.19;99857.81;10549138;28;20044;-73
2021/05/27 09:23:07;;;;;;;1.75;0.77;;;;;;;16.60;45.98;99864.03;10530334;28;20432;-71
2021/05/27 09:28:11;;;;;;;1.35;0.90;;;;;;;16.07;46.57;99868.91;10549390;28;20116;-72
2021/05/27 09:33:14;;;;;;;1.55;0.80;;;;;;;15.93;47.84;99876.75;10530471;28;20053;-73
2021/05/27 09:38:27;;;;;;;2.00;0.73;;;;;;;16.24;47.66;99872.38;10529585;28;20040;-73
2021/05/27 09:43:29;;;;;;;1.88;1.15;;;;;;;16.22;47.92;99871.59;10547549;28;20114;-73
2021/05/27 09:48:31;;;;;;;1.13;1.02;;;;;;;16.45;47.04;99883.53;10547917;28;20137;-72
2021/05/27 09:53:34;;;;;;;0.98;0.70;;;;;;;15.73;47.36;99885.00;10529975;28;20559;-72
2021/05/27 09:58:52;;;;;;;1.90;0.93;;;;;;;15.66;47.77;99878.31;10529435;28;20036;-73
2021/05/27 10:04:10;;;;;;;0.98;0.88;;;;;;;15.69;50.61;99891.41;10529419;28;20044;-72
2021/05/27 10:09:11;;;;;;;1.98;1.00;;;;;;;15.62;49.13;99899.63;10546785;28;20036;-73
2021/05/27 10:14:13;;;;;;;1.33;0.90;;;;;;;15.58;47.88;99906.06;10547698;28;20086;-73
2021/05/27 10:19:15;;;;;;;1.00;0.80;;;;;;;15.63;47.78;99909.31;10545576;28;20036;-74
2021/05/27 10:24:19;;;;;;;1.15;0.70;;;;;;;15.89;47.82;99907.03;10544841;28;20054;-73
2021/05/27 10:29:23;;;;;;;1.40;1.10;;;;;;;16.01;48.37;99909.00;10527357;28;20039;-74
2021/05/27 10:34:50;;;;;;;3.03;0.93;;;;;;;16.35;47.04;99915.91;10526933;28;20111;-73
2021/05/27 10:39:52;;;;;;;0.70;0.70;;;;;;;16.03;47.44;99914.25;10544380;28;20032;-74
2021/05/27 10:45:12;;;;;;;2.00;0.70;;;;;;;15.98;47.76;99903.91;10544262;28;20409;-73
2021/05/27 10:50:14;;;;;;;1.10;0.80;;;;;;;15.66;47.99;99920.69;10543800;28;20052;-74
2021/05/27 10:55:52;;;;;;;2.55;0.80;;;;;;;15.64;48.03;99918.16;10526462;28;20047;-73
2021/05/27 11:00:54;;;;;;;1.95;0.60;;;;;;;15.73;49.35;99922.94;10526306;28;20505;-72
2021/05/27 11:06:18;;;;;;;1.48;0.73;;;;;;;16.05;47.38;99915.84;10509869;28;20497;-73
2021/05/27 11:11:44;;;;;;;0.70;0.70;;;;;;;15.63;47.11;99916.41;10528063;28;20029;-73
2021/05/27 11:17:05;;;;;;;1.25;0.80;;;;;;;15.85;47.44;99924.94;10545990;28;20055;-73
2021/05/27 11:27:30;;;;;;;1.20;0.90;;;;;;;15.54;49.45;99933.66;10528118;28;20036;-73
2021/05/27 11:32:35;;;;;;;0.60;0.60;;;;;;;14.16;57.33;99955.63;10513850;28;20040;-74
2021/05/27 11:37:39;;;;;;;0.75;0.75;;;;;;;13.84;60.20;99960.66;10542367;28;20044;-73
2021/05/27 11:42:50;;;;;;;0.68;0.60;;;;;;;14.12;59.50;99968.16;10545791;28;20058;-73
2021/05/27 11:48:27;;;;;;;1.90;1.00;;;;;;;14.07;59.96;99977.22;10535252;28;20078;-73
2021/05/27 11:53:54;;;;;;;2.78;1.30;;;;;;;13.33;64.90;99977.09;10553992;28;20413;-74
2021/05/27 11:58:56;;;;;;;;;;;;;;;12.98;68.35;99966.22;10533854;28;20083;-73
2021/05/27 12:04:10;;;;;;;1.92;1.80;;;;;;;12.86;68.68;99962.31;10494542;28;19928;-73
2021/05/27 12:09:12;;;;;;;1.92;1.77;;;;;;;13.26;68.36;99955.34;10511414;28;20044;-73
2021/05/27 12:14:14;;;;;;;1.70;1.60;;;;;;;13.05;69.41;99946.56;10510774;28;20060;-72
2021/05/27 12:19:16;;;;;;;1.92;1.75;;;;;;;13.42;68.90;99936.22;10491414;28;20044;-73
2021/05/27 12:24:26;;;;;;;1.90;1.80;;;;;;;13.88;66.76;99949.00;10508524;28;20462;-72
2021/05/27 12:29:28;;;;;;;2.25;1.48;;;;;;;13.81;68.57;99950.25;10491437;28;20064;-73
2021/05/27 12:34:30;;;;;;;1.60;1.50;;;;;;;13.77;68.49;99961.88;10505534;28;20401;-72
2021/05/27 12:39:38;;;;;;;1.38;1.23;;;;;;;13.84;66.86;99960.66;10552455;28;20091;-73
2021/05/27 12:44:44;;;;;;;0.90;0.90;;;;;;;13.30;66.03;99974.56;10551085;28;20044;-73
2021/05/27 12:49:48;;;;;;;1.20;0.90;;;;;;;12.49;66.62;100020.16;10533690;28;20040;-72
2021/05/27 12:55:00;;;;;;;1.45;0.60;;;;;;;11.84;68.42;100048.09;10515053;28;20051;-71
2021/05/27 13:00:03;;;;;;;1.85;0.43;;;;;;;11.51;67.79;100050.13;10531205;28;20044;-72
2021/05/27 13:05:18;;;;;;;0.43;0.10;;;;;;;11.11;68.84;100048.84;10531205;28;20048;-72
2021/05/27 13:10:34;;;;;;;0.68;0.30;;;;;;;11.02;70.77;100057.94;10531253;28;20050;-72
2021/05/27 13:15:44;;;;;;;0.50;0.30;;;;;;;11.29;71.65;100045.63;10550475;28;20462;-72
2021/05/27 13:21:01;;;;;;;0.63;0.30;;;;;;;11.50;69.58;100059.78;10559274;22;20130;-69
2021/05/27 13:26:19;;;;;;;0.20;0.20;;;;;;;11.24;68.54;100068.59;10526537;28;20048;-68
2021/05/27 13:31:33;;;;;;;5.00;0.15;;;;;;;11.41;68.25;100065.38;10544719;28;20066;-68
2021/05/27 13:36:45;;;;;;;0.10;0.10;;;;;;;11.40;66.51;100062.81;10544492;28;20110;-69
2021/05/27 13:41:48;;;;;;;0.90;0.10;;;;;;;11.36;67.36;100067.31;10545157;28;20465;-70
2021/05/27 13:46:52;;;;;;;0.17;0.10;;;;;;;11.19;67.82;100081.03;10545655;28;20072;-68
2021/05/27 13:51:55;;;;;;;0.75;0.20;;;;;;;11.14;68.61;100084.75;10544713;28;20043;-68
2021/05/27 13:56:56;;;;;;;0.40;0.20;;;;;;;11.05;68.62;100083.28;10544588;28;20047;-69
2021/05/27 14:01:58;;;;;;;0.20;0.17;;;;;;;10.98;67.44;100090.53;10544649;28;20051;-69
2021/05/27 14:07:00;;;;;;;0.73;0.50;;;;;;;10.83;68.35;100083.97;10525771;28;20071;-69
2021/05/27 14:12:02;;;;;;;1.17;0.52;;;;;;;10.96;70.45;100086.22;10544555;28;20040;-68
2021/05/27 14:17:04;;;;;;;0.20;0.20;;;;;;;11.02;69.01;100075.47;10544512;28;20501;-69
2021/05/27 14:22:05;;;;;;;0.20;0.20;;;;;;;11.25;68.56;100072.97;10543790;28;20046;-68
2021/05/27 14:27:08;;;;;;;0.10;0.10;;;;;;;11.40;67.31;100065.44;10545198;28;20044;-69
2021/05/27 14:32:10;;;;;;;0.93;0.40;;;;;;;11.70;67.38;100055.59;10543588;28;20046;-68
2021/05/27 14:37:11;;;;;;;0.55;0.30;;;;;;;11.83;67.46;100055.13;10544906;28;20040;-68
2021/05/27 14:42:13;;;;;;;0.45;0.32;;;;;;;11.90;65.74;100060.16;10544731;28;20511;-69
2021/05/27 14:47:15;;;;;;;0.45;0.30;;;;;;;12.43;66.17;100063.41;10548854;28;20044;-68
2021/05/27 14:52:18;;;;;;;0.95;0.30;;;;;;;12.42;63.76;100059.06;10546186;28;20039;-68
2021/05/27 14:57:20;;;;;;;0.30;0.30;;;;;;;12.48;65.68;100061.44;10525308;28;20398;-69
2021/05/27 15:02:21;;;;;;;0.40;0.40;;;;;;;12.75;65.01;100053.34;10543856;28;20044;-69
2021/05/27 15:07:23;;;;;;;0.35;0.30;;;;;;;12.36;64.98;100068.06;10543245;28;20066;-69
2021/05/27 15:12:24;;;;;;;0.70;0.70;;;;;;;12.17;65.91;100066.19;10543190;28;20036;-69
2021/05/27 15:17:26;;;;;;;0.70;0.70;;;;;;;12.25;66.79;100069.41;10543660;28;20047;-69
2021/05/27 15:22:28;;;;;;;1.05;0.90;;;;;;;12.25;66.27;100061.47;10525823;28;20055;-69
2021/05/27 15:27:30;;;;;;;0.82;0.82;;;;;;;12.21;65.70;100070.41;10544254;28;20051;-69
2021/05/27 15:32:32;;;;;;;1.05;1.00;;;;;;;12.17;66.00;100071.44;10519591;28;20047;-68
2021/05/27 15:37:34;;;;;;;1.33;1.23;;;;;;;11.96;68.06;100067.88;10536143;28;20051;-68
2021/05/27 15:42:36;;;;;;;1.30;1.20;;;;;;;12.07;67.99;100065.69;10500148;28;20054;-70
2021/05/27 15:47:38;;;;;;;1.27;1.17;;;;;;;12.08;66.79;100064.75;10498100;28;20040;-69
2021/05/27 15:52:40;;;;;;;1.30;1.20;;;;;;;12.15;67.69;100078.56;10499455;28;20124;-69
2021/05/27 15:57:43;;;;;;;1.77;1.30;;;;;;;12.20;67.10;100077.47;10499675;28;20044;-70
2021/05/27 16:02:46;;;;;;;2.05;1.40;;;;;;;12.28;66.23;100071.91;10503945;28;20044;-69
2021/05/27 16:07:49;;;;;;;1.45;1.30;;;;;;;12.37;66.12;100074.19;10541652;28;20058;-69
2021/05/27 16:12:51;;;;;;;2.53;1.90;;;;;;;12.74;66.23;100056.94;10541619;28;20044;-70
2021/05/27 16:17:53;;;;;;;1.52;1.42;;;;;;;13.30;63.38;100066.97;10507011;28;20055;-70
2021/05/27 16:22:55;;;;;;;1.40;1.30;;;;;;;13.44;62.94;100056.66;10523160;28;20157;-70
2021/05/27 16:27:56;;;;;;;1.30;1.02;;;;;;;13.61;62.40;100059.44;10541247;28;20044;-70
2021/05/27 16:32:58;;;;;;;1.80;1.00;;;;;;;13.47;62.10;100056.53;10545784;28;20063;-70
2021/05/27 16:38:19;;;;;;;0.70;0.65;;;;;;;13.46;60.25;100060.09;10530325;28;20056;-69
2021/05/27 16:43:22;;;;;;;1.08;1.00;;;;;;;13.49;60.14;100065.25;10530660;28;20052;-70
2021/05/27 16:48:25;;;;;;;1.00;1.00;;;;;;;13.19;60.83;100062.09;10529476;28;20048;-69
2021/05/27 16:53:27;;;;;;;1.08;0.90;;;;;;;13.43;60.17;100062.88;10547082;28;20040;-69
2021/05/27 16:58:29;;;;;;;1.00;1.00;;;;;;;13.32;59.43;100070.38;10547856;28;20401;-71
2021/05/27 17:03:31;;;;;;;0.90;0.90;;;;;;;12.95;60.18;100061.34;10547097;28;20127;-69
2021/05/27 17:08:32;;;;;;;0.80;0.80;;;;;;;13.03;60.81;100069.78;10546763;28;20119;-69
2021/05/27 17:13:34;;;;;;;0.80;0.80;;;;;;;13.04;60.41;100073.28;10546356;28;20463;-70
2021/05/27 17:18:36;;;;;;;1.55;0.90;;;;;;;12.91;60.60;100065.00;10545553;28;20101;-68
2021/05/27 17:23:38;;;;;;;1.58;0.80;;;;;;;12.73;61.14;100065.75;10545428;28;20044;-69
2021/05/27 17:28:39;;;;;;;1.50;0.73;;;;;;;12.69;61.86;100077.34;10529049;28;20127;-69
2021/05/27 17:33:41;;;;;;;0.90;0.88;;;;;;;12.53;61.76;100080.59;10529384;28;20123;-69
2021/05/27 17:38:43;;;;;;;0.85;0.85;;;;;;;12.54;62.29;100084.09;10525925;28;20146;-69
2021/05/27 17:43:44;;;;;;;1.20;0.85;;;;;;;12.46;62.91;100094.06;10542442;28;20044;-70
2021/05/27 17:48:46;;;;;;;1.00;0.80;;;;;;;12.39;63.44;100098.72;10541624;28;20044;-70
2021/05/27 17:53:50;;;;;;;1.60;1.10;;;;;;;12.25;64.29;100101.88;10523093;28;20086;-70
2021/05/27 17:58:52;;;;;;;1.25;1.15;;;;;;;12.20;65.20;100100.34;10509276;28;20040;-70
2021/05/27 18:03:53;;;;;;;1.40;1.30;;;;;;;12.17;65.01;100101.28;10500588;28;20099;-71
2021/05/27 18:08:55;;;;;;;1.63;1.50;;;;;;;12.10;65.44;100098.03;10499974;28;20115;-71
2021/05/27 18:13:57;;;;;;;1.30;1.20;;;;;;;12.24;65.03;100104.56;10518516;28;20044;-71
2021/05/27 18:18:58;;;;;;;1.42;1.30;;;;;;;11.98;65.60;100105.53;10523825;28;20044;-71
2021/05/27 18:24:00;;;;;;;1.75;1.65;;;;;;;12.06;65.09;100106.97;10543639;28;20044;-71
2021/05/27 18:29:05;;;;;;;1.30;1.20;;;;;;;11.93;65.43;100100.44;10543666;28;20067;-72
2021/05/27 18:34:08;;;;;;;1.58;1.48;;;;;;;11.97;65.13;100103.81;10543412;28;20398;-71
2021/05/27 18:39:09;;;;;;;1.85;1.42;;;;;;;11.82;65.60;100111.38;10543123;28;20035;-70
2021/05/27 18:44:11;;;;;;;1.92;1.58;;;;;;;11.83;65.69;100128.03;10525130;28;20043;-71
2021/05/27 18:49:15;;;;;;;1.70;1.40;;;;;;;11.81;66.38;100125.41;10524587;28;20165;-71
2021/05/27 18:54:17;;;;;;;2.00;1.90;;;;;;;11.68;66.75;100131.16;10543101;28;20122;-70
2021/05/27 18:59:20;;;;;;;2.67;1.77;;;;;;;11.68;66.58;100137.28;10542711;28;20489;-70
2021/05/27 19:04:22;;;;;;;2.17;1.63;;;;;;;11.57;67.21;100140.28;10542873;28;20416;-71
2021/05/27 19:09:25;;;;;;;4.13;2.13;;;;;;;11.52;66.76;100141.38;10525315;28;20040;-70
2021/05/27 19:14:27;;;;;;;2.03;1.83;;;;;;;11.48;67.12;100145.88;10542590;28;20050;-71
2021/05/27 19:24:48;;;;;;;1.80;1.70;;;;;;;11.42;67.24;100158.34;10462051;28;20068;-75
2021/05/27 19:29:50;;;;;;;2.03;1.85;;;;;;;11.45;67.13;100151.22;10483428;28;20036;-73
2021/05/27 19:34:51;;;;;;;1.63;1.52;;;;;;;11.49;67.15;100160.75;10503027;28;20048;-74
2021/05/27 19:39:55;;;;;;;1.88;1.77;;;;;;;11.39;67.31;100167.22;10504264;28;20037;-74
2021/05/27 19:44:57;;;;;;;1.60;1.50;;;;;;;11.42;67.41;100179.41;10503888;28;20044;-75
2021/05/27 19:49:59;;;;;;;1.98;1.88;;;;;;;11.27;67.75;100186.03;10504415;28;20128;-74
2021/05/27 19:55:02;;;;;;;2.17;2.08;;;;;;;11.17;67.96;100188.13;10485624;28;20139;-73
2021/05/27 20:00:09;;;;;;;2.38;1.60;;;;;;;11.15;67.99;100197.81;10503768;28;20041;-74
2021/05/27 20:05:12;;;;;;;2.40;2.00;;;;;;;11.24;67.78;100196.66;10502171;28;20502;-74
2021/05/27 20:10:16;;;;;;;2.17;2.08;;;;;;;11.05;68.90;100202.50;10492671;28;20036;-73
2021/05/27 20:15:17;;;;;;;1.98;1.85;;;;;;;11.00;68.68;100208.81;10510978;28;20079;-74
2021/05/27 20:20:19;;;;;;;3.38;2.15;;;;;;;11.20;68.03;100211.72;10492616;28;20048;-73
2021/05/27 20:25:21;;;;;;;2.30;2.10;;;;;;;11.15;68.27;100218.00;10509858;28;20096;-75
2021/05/27 20:30:23;;;;;;;2.65;2.45;;;;;;;11.08;68.37;100218.19;10510334;28;20037;-75
2021/05/27 20:35:26;;;;;;;6.88;2.30;;;;;;;11.16;68.47;100233.75;10508552;28;20525;-75
2021/05/27 20:40:28;;;;;;;3.33;2.58;;;;;;;11.05;68.50;100228.81;10510710;28;20056;-74
2021/05/27 20:45:31;;;;;;;2.60;2.40;;;;;;;11.06;68.34;100235.78;10491255;28;20036;-73
2021/05/27 20:50:34;;;;;;;2.75;2.28;;;;;;;11.02;68.53;100236.81;10507104;28;20046;-73
2021/05/27 20:55:35;;;;;;;2.70;2.50;;;;;;;10.93;69.00;100237.06;10508141;28;20053;-74
2021/05/27 21:00:37;;;;;;;2.97;2.70;;;;;;;11.00;68.75;100241.25;10508296;28;20040;-72
2021/05/27 21:05:38;;;;;;;3.05;2.72;;;;;;;10.96;68.90;100242.25;10506704;28;20059;-72
2021/05/27 21:10:40;;;;;;;3.05;2.85;;;;;;;10.96;69.09;100242.25;10507276;28;20047;-72
2021/05/27 21:15:42;;;;;;;3.20;3.00;;;;;;;10.85;69.90;100241.72;10507805;28;20044;-73
2021/05/27 21:20:43;;;;;;;4.78;3.30;;;;;;;10.85;70.03;100254.88;10506406;28;20122;-71
2021/05/27 21:25:45;;;;;;;4.05;3.70;;;;;;;11.06;68.96;100253.34;10487621;28;20102;-72
2021/05/27 21:30:47;;;;;;;4.10;3.80;;;;;;;11.02;69.06;100263.13;10488425;28;20041;-72
2021/05/27 21:35:48;;;;;;;4.10;3.45;;;;;;;11.08;69.15;100262.06;10505767;28;20040;-72
2021/05/27 21:40:50;;;;;;;5.53;3.63;;;;;;;11.02;69.08;100260.50;10505653;28;20033;-72
2021/05/27 21:45:52;;;;;;;3.90;3.60;;;;;;;11.06;68.92;100264.72;10503999;28;20155;-72
2021/05/27 21:50:53;;;;;;;4.85;4.43;;;;;;;11.06;69.09;100283.13;10487874;28;20044;-72
2021/05/27 21:55:55;;;;;;;3.95;3.65;;;;;;;11.06;69.38;100283.13;10503751;28;20040;-72
2021/05/27 22:00:57;;;;;;;4.50;3.88;;;;;;;11.09;69.15;100285.69;10503083;28;20056;-73
2021/05/27 22:05:58;;;;;;;3.85;3.55;;;;;;;11.01;69.56;100289.44;10486950;28;20417;-71
2021/05/27 22:11:00;;;;;;;4.25;3.95;;;;;;;11.07;69.30;100284.88;10506170;28;20063;-72
2021/05/27 22:16:10;;;;;;;4.75;4.35;;;;;;;11.03;69.26;100282.41;10504106;28;20102;-71
2021/05/27 22:21:13;;;;;;;4.88;4.57;;;;;;;11.06;69.26;100282.28;10487426;28;20064;-73
2021/05/27 22:26:14;;;;;;;4.32;4.03;;;;;;;11.04;69.47;100292.84;10487935;28;20044;-72
2021/05/27 22:31:17;;;;;;;4.70;4.40;;;;;;;10.99;69.28;100297.41;10486723;28;20040;-72
2021/05/27 22:36:19;;;;;;;4.60;4.20;;;;;;;10.95;69.61;100297.53;10486547;28;20049;-71
2021/05/27 22:41:22;;;;;;;4.47;4.18;;;;;;;10.96;69.60;100291.34;10486860;28;20044;-72
2021/05/27 22:46:23;;;;;;;4.72;4.43;;;;;;;10.93;69.47;100300.19;10486775;28;20059;-72
2021/05/27 22:51:25;;;;;;;5.85;5.45;;;;;;;10.92;69.65;100306.34;10485952;28;20044;-73
2021/05/27 22:56:27;;;;;;;4.93;4.63;;;;;;;10.92;69.56;100308.13;10502091;28;20127;-72
2021/05/27 23:01:29;;;;;;;5.57;5.10;;;;;;;10.91;69.53;100309.03;10503170;28;20126;-73
2021/05/27 23:06:30;;;;;;;5.53;5.20;;;;;;;10.85;69.74;100315.34;10502548;28;20067;-72
2021/05/27 23:11:32;;;;;;;5.70;5.35;;;;;;;10.90;69.42;100307.31;10500481;28;20045;-71
2021/05/27 23:16:34;;;;;;;5.78;5.30;;;;;;;10.87;69.45;100321.41;10502413;28;20079;-73
2021/05/27 23:21:36;;;;;;;5.38;5.05;;;;;;;11.00;68.98;100317.53;10501540;28;20040;-72
2021/05/27 23:26:38;;;;;;;5.55;5.22;;;;;;;10.99;69.23;100326.34;10501367;28;20044;-72
2021/05/27 23:31:40;;;;;;;5.88;5.47;;;;;;;10.89;69.54;100326.63;10501079;28;20033;-72
2021/05/27 23:36:42;;;;;;;6.80;6.30;;;;;;;10.82;69.75;100339.94;10502552;28;20049;-72
2021/05/27 23:41:43;;;;;;;5.38;5.05;;;;;;;10.88;69.70;100338.91;10499845;28;20040;-72
2021/05/27 23:46:45;;;;;;;5.93;5.53;;;;;;;10.89;69.37;100339.78;10483137;28;20140;-72
2021/05/27 23:51:46;;;;;;;8.15;5.53;;;;;;;10.96;69.08;100328.19;10483064;28;20037;-72